createdAt,value
2022-08-17T00:02:26.501Z,100711.00
2022-08-17T00:07:28.575Z,100708.78
2022-08-17T00:12:42.055Z,100707.84
2022-08-17T00:17:51.720Z,100698.06
2022-08-17T00:23:07.096Z,100700.72
2022-08-17T00:28:08.668Z,100696.25
2022-08-17T00:33:17.021Z,100700.16
2022-08-17T00:38:18.730Z,100700.31
2022-08-17T00:43:32.094Z,100707.13
2022-08-17T00:48:33.623Z,100715.38
2022-08-17T00:53:37.075Z,100717.59
2022-08-17T00:58:38.610Z,100726.38
2022-08-17T01:03:40.144Z,100720.66
2022-08-17T01:08:41.668Z,100726.66
2022-08-17T01:13:43.361Z,100728.88
2022-08-17T01:18:45.947Z,100716.34
2022-08-17T01:23:47.454Z,100723.59
2022-08-17T01:28:54.767Z,100732.59
2022-08-17T01:33:59.451Z,100727.09
2022-08-17T01:39:05.271Z,100737.06
2022-08-17T01:44:07.400Z,100746.69
2022-08-17T01:49:10.721Z,100743.25
2022-08-17T01:54:13.772Z,100749.22
2022-08-17T01:59:16.436Z,100740.31
2022-08-17T02:04:17.999Z,100735.84
2022-08-17T02:09:20.281Z,100742.13
2022-08-17T02:14:25.012Z,100732.09
2022-08-17T02:19:26.537Z,100728.03
2022-08-17T02:24:59.608Z,100722.75
2022-08-17T02:29:52.551Z,100724.09
2022-08-17T02:34:54.082Z,100720.19
2022-08-17T02:39:58.802Z,100718.66
2022-08-17T02:45:01.371Z,100730.19
2022-08-17T02:50:03.641Z,100720.38
2022-08-17T02:55:19.267Z,100724.75
2022-08-17T03:00:23.988Z,100736.19
2022-08-17T03:05:26.614Z,100715.81
2022-08-17T03:10:29.625Z,100715.81
2022-08-17T03:15:32.300Z,100715.06
2022-08-17T03:20:34.036Z,100716.63
2022-08-17T03:25:42.692Z,100708.88
2022-08-17T03:30:45.610Z,100720.91
2022-08-17T03:35:47.294Z,100717.63
2022-08-17T03:40:57.765Z,100722.06
2022-08-17T03:46:35.227Z,100730.03
2022-08-17T03:51:55.871Z,100736.13
2022-08-17T03:57:06.590Z,100730.91
2022-08-17T04:02:11.055Z,100737.88
2022-08-17T04:07:12.662Z,100749.25
2022-08-17T04:12:15.826Z,100755.81
2022-08-17T04:17:17.344Z,100763.47
2022-08-17T04:22:32.945Z,100769.16
2022-08-17T04:27:35.909Z,100772.81
2022-08-17T04:33:06.243Z,100773.69
2022-08-17T04:38:10.460Z,100767.97
2022-08-17T04:43:14.250Z,100766.88
2022-08-17T04:48:15.776Z,100764.50
2022-08-17T04:53:17.924Z,100770.31
2022-08-17T04:58:19.643Z,100768.94
2022-08-17T05:03:21.171Z,100764.81
2022-08-17T05:08:22.696Z,100765.59
2022-08-17T05:13:25.402Z,100775.38
2022-08-17T05:18:27.635Z,100780.13
2022-08-17T05:23:41.902Z,100786.81
2022-08-17T05:28:44.768Z,100796.00
2022-08-17T05:33:47.676Z,100796.13
2022-08-17T05:38:49.192Z,100795.72
2022-08-17T05:43:54.359Z,100794.06
2022-08-17T05:49:00.899Z,100793.34
2022-08-17T05:54:39.805Z,100794.75
2022-08-17T05:59:50.364Z,100805.06
2022-08-17T06:05:25.298Z,100809.13
2022-08-17T06:10:39.930Z,100798.25
2022-08-17T06:16:02.195Z,100793.66
2022-08-17T06:21:04.678Z,100786.41
2022-08-17T06:26:11.563Z,100786.56
2022-08-17T06:31:34.688Z,100802.28
2022-08-17T06:37:09.249Z,100802.19
2022-08-17T06:42:54.007Z,100814.34
2022-08-17T06:48:02.651Z,100816.16
2022-08-17T06:53:40.055Z,100816.28
2022-08-17T06:58:43.325Z,100817.84
2022-08-17T07:03:54.340Z,100820.78
2022-08-17T07:09:08.250Z,100815.78
2022-08-17T07:14:20.212Z,100828.56
2022-08-17T07:19:23.665Z,100828.56
2022-08-17T07:24:30.802Z,100825.50
2022-08-17T07:29:33.735Z,100835.91
2022-08-17T07:35:02.973Z,100837.34
2022-08-17T07:40:27.078Z,100833.72
2022-08-17T07:45:47.046Z,100845.28
2022-08-17T07:50:50.836Z,100842.25
2022-08-17T07:55:53.238Z,100854.25
2022-08-17T08:01:09.366Z,100860.22
2022-08-17T08:06:23.577Z,100854.19
2022-08-17T08:11:33.542Z,100863.03
2022-08-17T08:16:35.228Z,100875.56
2022-08-17T08:21:49.239Z,100870.13
2022-08-17T08:26:56.836Z,100882.84
2022-08-17T08:32:07.618Z,100891.06
2022-08-17T08:37:47.603Z,100889.69
2022-08-17T08:43:02.293Z,100894.69
2022-08-17T08:48:46.276Z,100896.22
2022-08-17T08:53:49.359Z,100897.03
2022-08-17T08:59:07.643Z,100907.78
2022-08-17T09:05:10.659Z,100904.31
2022-08-17T09:10:09.217Z,100917.44
2022-08-17T09:15:29.275Z,100911.59
2022-08-17T09:20:35.814Z,100911.47
2022-08-17T09:25:49.878Z,100914.91
2022-08-17T09:30:55.297Z,100905.66
2022-08-17T09:36:02.779Z,100913.50
2022-08-17T09:41:18.211Z,100908.53
2022-08-17T09:46:24.804Z,100912.16
2022-08-17T09:51:40.125Z,100915.72
2022-08-17T09:57:29.906Z,100902.56
2022-08-17T10:02:53.499Z,100897.97
2022-08-17T10:08:02.441Z,100896.25
2022-08-17T10:13:16.323Z,100901.59
2022-08-17T10:18:42.242Z,100900.44
2022-08-17T10:24:02.331Z,100905.88
2022-08-17T10:29:12.414Z,100907.19
2022-08-17T10:34:28.714Z,100907.28
2022-08-17T10:39:52.483Z,100926.38
2022-08-17T10:45:26.792Z,100917.66
2022-08-17T10:50:47.401Z,100923.91
2022-08-17T10:56:13.723Z,100926.50
2022-08-17T11:01:16.047Z,100922.53
2022-08-17T11:06:21.491Z,100922.22
2022-08-17T11:11:47.268Z,100913.97
2022-08-17T11:17:11.340Z,100918.72
2022-08-17T11:22:33.372Z,100900.91
2022-08-17T11:27:35.471Z,100911.78
2022-08-17T11:32:47.096Z,100904.81
2022-08-17T11:38:17.390Z,100906.22
2022-08-17T11:43:38.351Z,100913.91
2022-08-17T11:49:30.526Z,100915.91
2022-08-17T11:54:47.571Z,100913.41
2022-08-17T11:59:51.763Z,100903.72
2022-08-17T12:05:12.126Z,100898.34
2022-08-17T12:10:17.145Z,100903.13
2022-08-17T12:15:21.292Z,100905.16
2022-08-17T12:20:33.557Z,100904.78
2022-08-17T12:25:47.693Z,100908.38
2022-08-17T12:30:50.052Z,100908.66
2022-08-17T12:36:03.086Z,100903.59
2022-08-17T12:41:24.887Z,100899.75
2022-08-17T12:46:26.482Z,100887.88
2022-08-17T12:51:29.208Z,100882.28
2022-08-17T12:56:31.327Z,100881.28
2022-08-17T13:01:34.956Z,100877.78
2022-08-17T13:06:37.305Z,100875.72
2022-08-17T13:11:56.244Z,100871.66
2022-08-17T13:16:59.837Z,100858.97
2022-08-17T13:22:01.575Z,100867.19
2022-08-17T13:27:10.205Z,100852.66
2022-08-17T13:32:13.736Z,100861.47
2022-08-17T13:37:28.992Z,100842.22
2022-08-17T13:42:52.058Z,100859.66
2022-08-17T13:48:25.440Z,100860.06
2022-08-17T13:53:32.773Z,100863.59
2022-08-17T13:58:37.133Z,100872.22
2022-08-17T14:03:38.657Z,100872.97
2022-08-17T14:08:43.657Z,100870.00
2022-08-17T14:13:46.282Z,100864.28
2022-08-17T14:18:56.023Z,100860.38
2022-08-17T14:23:58.863Z,100857.44
2022-08-17T14:29:00.587Z,100846.00
2022-08-17T14:34:02.121Z,100853.81
2022-08-17T14:39:04.258Z,100855.44
2022-08-17T14:44:05.933Z,100848.91
2022-08-17T14:49:10.972Z,100846.28
2022-08-17T14:54:33.524Z,100850.38
2022-08-17T14:59:35.590Z,100846.88
2022-08-17T15:04:40.797Z,100849.63
2022-08-17T15:09:45.559Z,100857.41
2022-08-17T15:14:47.090Z,100867.34
2022-08-17T15:19:48.628Z,100857.31
2022-08-17T15:24:50.148Z,100816.69
2022-08-17T15:29:51.718Z,100811.38
2022-08-17T15:34:57.053Z,100796.63
2022-08-17T15:40:00.690Z,100789.09
2022-08-17T15:45:10.754Z,100783.09
2022-08-17T15:50:12.296Z,100783.81
2022-08-17T15:55:14.724Z,100783.94
2022-08-17T16:00:17.280Z,100790.41
2022-08-17T16:05:21.652Z,100791.56
2022-08-17T16:10:35.658Z,100789.94
2022-08-17T16:15:38.065Z,100783.41
2022-08-17T16:20:39.586Z,100756.56
2022-08-17T16:25:52.884Z,100751.38
2022-08-17T16:30:55.719Z,100755.72
2022-08-17T16:35:57.234Z,100756.75
2022-08-17T16:40:58.740Z,100747.22
2022-08-17T16:46:00.853Z,100747.94
2022-08-17T16:51:04.505Z,100740.22
2022-08-17T16:56:07.186Z,100745.91
2022-08-17T17:01:08.752Z,100761.06
2022-08-17T17:06:27.767Z,100774.63
2022-08-17T17:11:34.094Z,100779.03
2022-08-17T17:16:58.659Z,100764.44
2022-08-17T17:22:03.790Z,100751.41
2022-08-17T17:27:26.506Z,100753.06
2022-08-17T17:32:37.984Z,100760.22
2022-08-17T17:37:39.511Z,100752.53
2022-08-17T17:42:41.271Z,100760.31
2022-08-17T17:47:42.854Z,100766.81
2022-08-17T17:52:56.063Z,100749.53
2022-08-17T17:58:13.369Z,100759.25
2022-08-17T18:03:22.334Z,100767.78
2022-08-17T18:08:33.961Z,100764.72
2022-08-17T18:14:14.802Z,100774.31
2022-08-17T18:19:20.341Z,100780.41
2022-08-17T18:24:32.970Z,100801.91
2022-08-17T18:29:39.905Z,100795.34
2022-08-17T18:34:47.922Z,100793.06
2022-08-17T18:39:50.208Z,100802.22
2022-08-17T18:44:54.967Z,100803.22
2022-08-17T18:49:58.757Z,100801.22
2022-08-17T18:55:00.113Z,100804.06
2022-08-17T19:00:02.043Z,100809.38
2022-08-17T19:05:32.723Z,100809.06
2022-08-17T19:10:46.304Z,100827.94
2022-08-17T19:16:18.022Z,100855.88
2022-08-17T19:21:30.769Z,100855.88
2022-08-17T19:26:54.451Z,100836.56
2022-08-17T19:31:58.438Z,100840.22
2022-08-17T19:37:11.394Z,100861.59
2022-08-17T19:42:31.056Z,100888.66
2022-08-17T19:48:03.335Z,100935.84
2022-08-17T19:53:13.524Z,100889.75
2022-08-17T19:58:26.824Z,100891.34
2022-08-17T20:03:35.256Z,100880.50
2022-08-17T20:08:39.165Z,100884.59
2022-08-17T20:13:49.684Z,100947.09
2022-08-17T20:19:04.830Z,101027.16
2022-08-17T20:24:35.843Z,101024.13
2022-08-17T20:29:52.177Z,100982.00
2022-08-17T20:35:16.769Z,100961.56
2022-08-17T20:40:21.340Z,100898.09
2022-08-17T20:45:25.041Z,100899.34
2022-08-17T20:50:38.533Z,100900.50
2022-08-17T20:55:52.516Z,100887.31
2022-08-17T21:00:57.378Z,100852.19
2022-08-17T21:06:16.848Z,100883.16
2022-08-17T21:11:56.778Z,100915.84
2022-08-17T21:17:01.320Z,100921.78
2022-08-17T21:22:53.827Z,100902.94
2022-08-17T21:28:34.320Z,100827.41
2022-08-17T21:33:37.854Z,100799.72
2022-08-17T21:38:41.742Z,100805.34
2022-08-17T21:43:46.466Z,100801.03
2022-08-17T21:48:50.465Z,100783.94
2022-08-17T21:54:00.499Z,100775.75
2022-08-17T21:59:27.160Z,100751.19
2022-08-17T22:04:29.020Z,100738.72
2022-08-17T22:09:49.039Z,100730.41
2022-08-17T22:14:57.932Z,100746.06
2022-08-17T22:20:18.458Z,100741.44
2022-08-17T22:25:20.635Z,100745.66
2022-08-17T22:30:26.289Z,100755.19
2022-08-17T22:35:33.300Z,100752.47
2022-08-17T22:40:34.810Z,100769.13
2022-08-17T22:45:40.386Z,100767.94
2022-08-17T22:50:41.924Z,100770.72
2022-08-17T22:56:14.025Z,100767.00
2022-08-17T23:01:32.581Z,100784.78
2022-08-17T23:06:35.072Z,100781.34
2022-08-17T23:11:48.703Z,100764.84
2022-08-17T23:16:51.230Z,100769.41
2022-08-17T23:21:55.223Z,100781.28
2022-08-17T23:26:59.515Z,100801.00
2022-08-17T23:32:01.429Z,100798.69
2022-08-17T23:37:04.262Z,100803.56
2022-08-17T23:42:08.090Z,100815.31
2022-08-17T23:47:10.362Z,100808.34
2022-08-17T23:52:15.011Z,100803.38
2022-08-17T23:57:19.602Z,100802.31
